sensor_id;sensor_type;location;lat;lon;timestamp;pressure;altitude;pressure_sealevel;temperature;humidity
78751;BME280;68070;50.954;11.060;2023-05-10T00:01:35;98251.03;;;13.92;45.13
78751;BME280;68070;50.954;11.060;2023-05-10T00:04:20;98249.58;;;13.91;45.13
78751;BME280;68070;50.954;11.060;2023-05-10T00:07:05;98246.77;;;13.92;45.13
78751;BME280;68070;50.954;11.060;2023-05-10T00:09:50;98244.59;;;13.91;45.21
78751;BME280;68070;50.954;11.060;2023-05-10T00:12:34;98240.42;;;13.90;45.36
78751;BME280;68070;50.954;11.060;2023-05-10T00:15:19;98238.27;;;13.88;45.11
78751;BME280;68070;50.954;11.060;2023-05-10T00:18:06;98238.14;;;13.86;45.10
78751;BME280;68070;50.954;11.060;2023-05-10T00:20:50;98235.38;;;13.87;45.60
78751;BME280;68070;50.954;11.060;2023-05-10T00:23:35;98231.38;;;13.91;45.70
78751;BME280;68070;50.954;11.060;2023-05-10T00:26:19;98230.56;;;13.90;46.18
78751;BME280;68070;50.954;11.060;2023-05-10T00:29:04;98232.05;;;13.87;45.69
78751;BME280;68070;50.954;11.060;2023-05-10T00:31:49;98230.75;;;13.88;45.79
78751;BME280;68070;50.954;11.060;2023-05-10T00:34:33;98225.96;;;13.91;46.33
78751;BME280;68070;50.954;11.060;2023-05-10T00:37:17;98224.35;;;13.89;46.26
78751;BME280;68070;50.954;11.060;2023-05-10T00:40:02;98223.35;;;13.85;46.21
78751;BME280;68070;50.954;11.060;2023-05-10T00:42:47;98222.22;;;13.80;45.93
78751;BME280;68070;50.954;11.060;2023-05-10T00:45:32;98224.86;;;13.79;46.30
78751;BME280;68070;50.954;11.060;2023-05-10T00:48:18;98224.65;;;13.83;46.76
78751;BME280;68070;50.954;11.060;2023-05-10T00:51:03;98220.58;;;13.84;46.07
78751;BME280;68070;50.954;11.060;2023-05-10T00:53:48;98223.94;;;13.84;46.66
78751;BME280;68070;50.954;11.060;2023-05-10T00:56:33;98204.27;;;13.78;46.32
78751;BME280;68070;50.954;11.060;2023-05-10T00:59:19;98223.64;;;13.89;46.50
78751;BME280;68070;50.954;11.060;2023-05-10T01:02:03;98220.89;;;13.93;46.69
78751;BME280;68070;50.954;11.060;2023-05-10T01:04:48;98222.09;;;13.99;46.21
78751;BME280;68070;50.954;11.060;2023-05-10T01:07:33;98219.92;;;14.01;46.51
78751;BME280;68070;50.954;11.060;2023-05-10T01:10:18;98218.52;;;14.02;46.44
78751;BME280;68070;50.954;11.060;2023-05-10T01:13:02;98215.64;;;14.04;46.40
78751;BME280;68070;50.954;11.060;2023-05-10T01:15:47;98213.42;;;14.05;46.45
78751;BME280;68070;50.954;11.060;2023-05-10T01:18:35;98213.42;;;14.05;46.77
78751;BME280;68070;50.954;11.060;2023-05-10T01:33:25;98216.95;;;14.02;46.97
78751;BME280;68070;50.954;11.060;2023-05-10T01:36:30;98222.62;;;13.99;46.69
78751;BME280;68070;50.954;11.060;2023-05-10T01:42:26;98220.19;;;13.90;47.62
78751;BME280;68070;50.954;11.060;2023-05-10T01:45:29;98221.79;;;13.85;47.93
78751;BME280;68070;50.954;11.060;2023-05-10T01:48:16;98218.42;;;13.79;47.38
78751;BME280;68070;50.954;11.060;2023-05-10T01:51:04;98216.95;;;13.72;47.52
78751;BME280;68070;50.954;11.060;2023-05-10T01:53:54;98216.46;;;13.66;48.57
78751;BME280;68070;50.954;11.060;2023-05-10T01:56:41;98218.88;;;13.62;48.48
78751;BME280;68070;50.954;11.060;2023-05-10T01:59:30;98216.48;;;13.57;48.49
78751;BME280;68070;50.954;11.060;2023-05-10T02:02:21;98212.19;;;13.50;48.64
78751;BME280;68070;50.954;11.060;2023-05-10T02:05:09;98216.59;;;13.47;49.03
78751;BME280;68070;50.954;11.060;2023-05-10T02:07:57;98217.23;;;13.42;48.72
78751;BME280;68070;50.954;11.060;2023-05-10T02:10:45;98220.88;;;13.38;48.75
78751;BME280;68070;50.954;11.060;2023-05-10T02:13:32;98225.36;;;13.33;49.55
78751;BME280;68070;50.954;11.060;2023-05-10T02:16:23;98222.13;;;13.27;49.72
78751;BME280;68070;50.954;11.060;2023-05-10T02:19:08;98227.05;;;13.25;49.27
78751;BME280;68070;50.954;11.060;2023-05-10T02:21:55;98225.70;;;13.20;49.65
78751;BME280;68070;50.954;11.060;2023-05-10T02:24:41;98223.16;;;13.15;50.00
78751;BME280;68070;50.954;11.060;2023-05-10T02:27:27;98227.46;;;13.11;50.14
78751;BME280;68070;50.954;11.060;2023-05-10T02:30:15;98227.33;;;13.07;51.28
78751;BME280;68070;50.954;11.060;2023-05-10T02:33:00;98224.08;;;13.04;52.25
78751;BME280;68070;50.954;11.060;2023-05-10T02:35:46;98222.32;;;12.98;51.27
78751;BME280;68070;50.954;11.060;2023-05-10T02:38:33;98219.33;;;12.92;51.34
78751;BME280;68070;50.954;11.060;2023-05-10T02:41:20;98221.04;;;12.89;51.37
78751;BME280;68070;50.954;11.060;2023-05-10T02:44:07;98219.05;;;12.85;51.67
78751;BME280;68070;50.954;11.060;2023-05-10T02:46:53;98220.36;;;12.81;52.21
78751;BME280;68070;50.954;11.060;2023-05-10T02:49:40;98220.92;;;12.77;52.75
78751;BME280;68070;50.954;11.060;2023-05-10T02:52:29;98217.66;;;12.74;53.00
78751;BME280;68070;50.954;11.060;2023-05-10T02:55:16;98219.54;;;12.70;52.66
78751;BME280;68070;50.954;11.060;2023-05-10T02:58:03;98221.88;;;12.66;53.44
78751;BME280;68070;50.954;11.060;2023-05-10T03:00:48;98217.65;;;12.63;55.38
78751;BME280;68070;50.954;11.060;2023-05-10T03:03:33;98220.34;;;12.57;53.96
78751;BME280;68070;50.954;11.060;2023-05-10T03:06:17;98222.81;;;12.57;53.67
78751;BME280;68070;50.954;11.060;2023-05-10T03:09:02;98219.42;;;12.58;54.53
78751;BME280;68070;50.954;11.060;2023-05-10T03:11:56;98221.61;;;12.61;54.71
78751;BME280;68070;50.954;11.060;2023-05-10T03:14:54;98221.67;;;12.64;56.12
78751;BME280;68070;50.954;11.060;2023-05-10T03:17:57;98218.00;;;12.62;56.29
78751;BME280;68070;50.954;11.060;2023-05-10T03:20:50;98216.68;;;12.60;56.77
78751;BME280;68070;50.954;11.060;2023-05-10T03:23:43;98214.28;;;12.61;55.42
78751;BME280;68070;50.954;11.060;2023-05-10T03:26:30;98214.59;;;12.62;56.66
78751;BME280;68070;50.954;11.060;2023-05-10T03:29:25;98216.09;;;12.65;55.43
78751;BME280;68070;50.954;11.060;2023-05-10T03:32:10;98217.58;;;12.68;56.03
78751;BME280;68070;50.954;11.060;2023-05-10T03:34:55;98222.46;;;12.69;57.19
78751;BME280;68070;50.954;11.060;2023-05-10T03:37:42;98216.98;;;12.70;56.05
78751;BME280;68070;50.954;11.060;2023-05-10T03:40:26;98220.67;;;12.78;56.55
78751;BME280;68070;50.954;11.060;2023-05-10T03:43:13;98219.05;;;12.87;57.20
78751;BME280;68070;50.954;11.060;2023-05-10T03:45:57;98217.74;;;12.88;57.40
78751;BME280;68070;50.954;11.060;2023-05-10T03:48:42;98215.81;;;12.86;57.41
78751;BME280;68070;50.954;11.060;2023-05-10T03:51:26;98224.53;;;12.84;57.99
78751;BME280;68070;50.954;11.060;2023-05-10T03:54:12;98227.15;;;12.81;58.48
78751;BME280;68070;50.954;11.060;2023-05-10T03:56:56;98225.98;;;12.75;59.38
78751;BME280;68070;50.954;11.060;2023-05-10T03:59:41;98227.20;;;12.68;59.46
78751;BME280;68070;50.954;11.060;2023-05-10T04:02:26;98228.47;;;12.60;61.32
78751;BME280;68070;50.954;11.060;2023-05-10T04:05:11;98230.06;;;12.54;60.02
78751;BME280;68070;50.954;11.060;2023-05-10T04:07:55;98228.57;;;12.55;60.12
78751;BME280;68070;50.954;11.060;2023-05-10T04:10:39;98232.84;;;12.55;62.14
78751;BME280;68070;50.954;11.060;2023-05-10T04:13:23;98233.89;;;12.53;63.96
78751;BME280;68070;50.954;11.060;2023-05-10T04:16:08;98235.45;;;12.52;64.44
78751;BME280;68070;50.954;11.060;2023-05-10T04:18:53;98236.88;;;12.49;64.49
78751;BME280;68070;50.954;11.060;2023-05-10T04:21:37;98232.94;;;12.45;64.30
78751;BME280;68070;50.954;11.060;2023-05-10T04:24:21;98239.02;;;12.41;64.15
78751;BME280;68070;50.954;11.060;2023-05-10T04:27:06;98242.47;;;12.40;65.63
78751;BME280;68070;50.954;11.060;2023-05-10T04:29:50;98242.60;;;12.41;65.36
78751;BME280;68070;50.954;11.060;2023-05-10T04:32:35;98244.85;;;12.46;67.84
78751;BME280;68070;50.954;11.060;2023-05-10T04:35:19;98242.89;;;12.40;67.89
78751;BME280;68070;50.954;11.060;2023-05-10T04:38:04;98242.89;;;12.32;69.99
78751;BME280;68070;50.954;11.060;2023-05-10T04:40:48;98244.60;;;12.29;70.25
78751;BME280;68070;50.954;11.060;2023-05-10T04:43:33;98240.52;;;12.21;72.13
78751;BME280;68070;50.954;11.060;2023-05-10T04:46:18;98239.24;;;12.16;72.44
78751;BME280;68070;50.954;11.060;2023-05-10T04:49:03;98239.56;;;12.15;72.03
78751;BME280;68070;50.954;11.060;2023-05-10T04:51:47;98237.55;;;12.11;72.44
78751;BME280;68070;50.954;11.060;2023-05-10T04:54:31;98230.73;;;12.08;74.87
78751;BME280;68070;50.954;11.060;2023-05-10T04:57:16;98237.30;;;12.10;73.51
78751;BME280;68070;50.954;11.060;2023-05-10T05:00:00;98237.05;;;12.19;74.37
78751;BME280;68070;50.954;11.060;2023-05-10T05:02:45;98234.58;;;12.22;73.88
78751;BME280;68070;50.954;11.060;2023-05-10T05:05:29;98235.57;;;12.26;73.29
78751;BME280;68070;50.954;11.060;2023-05-10T05:08:14;98236.08;;;12.31;73.70
78751;BME280;68070;50.954;11.060;2023-05-10T05:10:58;98238.10;;;12.41;73.75
78751;BME280;68070;50.954;11.060;2023-05-10T05:13:43;98245.42;;;12.47;73.48
78751;BME280;68070;50.954;11.060;2023-05-10T05:16:30;98248.55;;;12.53;74.43
78751;BME280;68070;50.954;11.060;2023-05-10T05:19:14;98251.36;;;12.54;74.39
78751;BME280;68070;50.954;11.060;2023-05-10T05:21:59;98253.49;;;12.60;73.40
78751;BME280;68070;50.954;11.060;2023-05-10T05:24:43;98258.02;;;12.69;75.30
78751;BME280;68070;50.954;11.060;2023-05-10T05:27:29;98265.71;;;12.81;73.50
78751;BME280;68070;50.954;11.060;2023-05-10T05:30:13;98271.46;;;12.90;73.64
78751;BME280;68070;50.954;11.060;2023-05-10T05:32:57;98276.27;;;12.90;73.55
78751;BME280;68070;50.954;11.060;2023-05-10T05:35:42;98275.00;;;12.94;73.23
78751;BME280;68070;50.954;11.060;2023-05-10T05:38:31;98279.63;;;12.98;75.39
78751;BME280;68070;50.954;11.060;2023-05-10T05:41:15;98279.25;;;12.97;75.35
78751;BME280;68070;50.954;11.060;2023-05-10T05:44:00;98284.28;;;12.95;77.29
78751;BME280;68070;50.954;11.060;2023-05-10T05:46:44;98284.38;;;12.88;78.41
78751;BME280;68070;50.954;11.060;2023-05-10T05:49:28;98289.00;;;12.90;78.88
78751;BME280;68070;50.954;11.060;2023-05-10T05:52:13;98292.79;;;12.89;79.14
78751;BME280;68070;50.954;11.060;2023-05-10T05:54:57;98293.51;;;12.93;79.09
78751;BME280;68070;50.954;11.060;2023-05-10T05:57:42;98291.52;;;12.99;79.81
78751;BME280;68070;50.954;11.060;2023-05-10T06:00:27;98294.77;;;13.08;79.79
78751;BME280;68070;50.954;11.060;2023-05-10T06:03:12;98297.58;;;13.15;79.95
78751;BME280;68070;50.954;11.060;2023-05-10T06:05:56;98303.84;;;13.19;80.15
78751;BME280;68070;50.954;11.060;2023-05-10T06:08:40;98308.44;;;13.29;80.02
78751;BME280;68070;50.954;11.060;2023-05-10T06:11:25;98315.64;;;13.40;79.66
78751;BME280;68070;50.954;11.060;2023-05-10T06:14:10;98320.30;;;13.49;79.13
78751;BME280;68070;50.954;11.060;2023-05-10T06:16:54;98321.36;;;13.54;79.25
78751;BME280;68070;50.954;11.060;2023-05-10T06:19:39;98326.05;;;13.65;79.61
78751;BME280;68070;50.954;11.060;2023-05-10T06:22:23;98333.34;;;13.70;79.53
78751;BME280;68070;50.954;11.060;2023-05-10T06:25:08;98343.31;;;13.77;80.22
78751;BME280;68070;50.954;11.060;2023-05-10T06:27:53;98347.99;;;13.74;79.65
78751;BME280;68070;50.954;11.060;2023-05-10T06:30:41;98347.50;;;13.83;79.84
78751;BME280;68070;50.954;11.060;2023-05-10T06:33:25;98347.66;;;13.90;79.85
78751;BME280;68070;50.954;11.060;2023-05-10T06:36:10;98350.83;;;13.96;79.21
78751;BME280;68070;50.954;11.060;2023-05-10T06:38:54;98349.20;;;14.07;79.03
78751;BME280;68070;50.954;11.060;2023-05-10T06:41:38;98352.02;;;14.18;79.30
78751;BME280;68070;50.954;11.060;2023-05-10T06:44:22;98353.89;;;14.23;79.37
78751;BME280;68070;50.954;11.060;2023-05-10T06:47:07;98360.16;;;14.26;78.81
78751;BME280;68070;50.954;11.060;2023-05-10T06:49:51;98361.58;;;14.32;78.66
78751;BME280;68070;50.954;11.060;2023-05-10T06:52:36;98363.10;;;14.42;78.11
78751;BME280;68070;50.954;11.060;2023-05-10T06:55:20;98365.08;;;14.47;78.01
78751;BME280;68070;50.954;11.060;2023-05-10T06:58:05;98373.95;;;14.53;78.11
78751;BME280;68070;50.954;11.060;2023-05-10T07:00:50;98369.66;;;14.55;77.77
78751;BME280;68070;50.954;11.060;2023-05-10T07:03:34;98372.96;;;14.63;77.64
78751;BME280;68070;50.954;11.060;2023-05-10T07:06:19;98376.38;;;14.70;77.29
78751;BME280;68070;50.954;11.060;2023-05-10T07:09:04;98377.94;;;14.81;77.09
78751;BME280;68070;50.954;11.060;2023-05-10T07:11:48;98376.38;;;14.89;76.60
78751;BME280;68070;50.954;11.060;2023-05-10T07:14:33;98378.30;;;14.93;76.14
78751;BME280;68070;50.954;11.060;2023-05-10T07:17:17;98380.14;;;14.93;75.80
78751;BME280;68070;50.954;11.060;2023-05-10T07:20:02;98380.35;;;15.04;75.88
78751;BME280;68070;50.954;11.060;2023-05-10T07:22:48;98380.54;;;15.20;76.08
78751;BME280;68070;50.954;11.060;2023-05-10T07:25:32;98384.71;;;15.31;75.65
78751;BME280;68070;50.954;11.060;2023-05-10T07:28:16;98386.39;;;15.39;75.02
78751;BME280;68070;50.954;11.060;2023-05-10T07:31:01;98390.73;;;15.52;75.28
78751;BME280;68070;50.954;11.060;2023-05-10T07:33:45;98392.37;;;15.73;74.38
78751;BME280;68070;50.954;11.060;2023-05-10T07:36:30;98392.43;;;15.91;73.72
78751;BME280;68070;50.954;11.060;2023-05-10T07:39:15;98394.80;;;16.06;73.70
78751;BME280;68070;50.954;11.060;2023-05-10T07:41:59;98397.48;;;16.34;71.93
78751;BME280;68070;50.954;11.060;2023-05-10T07:44:44;98399.82;;;16.64;70.60
78751;BME280;68070;50.954;11.060;2023-05-10T07:47:28;98403.58;;;16.96;70.63
78751;BME280;68070;50.954;11.060;2023-05-10T07:50:13;98401.23;;;17.29;69.39
78751;BME280;68070;50.954;11.060;2023-05-10T07:52:57;98404.69;;;17.44;68.50
78751;BME280;68070;50.954;11.060;2023-05-10T07:55:42;98404.89;;;17.47;66.49
78751;BME280;68070;50.954;11.060;2023-05-10T07:58:26;98403.91;;;17.32;65.27
78751;BME280;68070;50.954;11.060;2023-05-10T08:01:10;98404.42;;;17.16;66.04
78751;BME280;68070;50.954;11.060;2023-05-10T08:03:55;98406.73;;;17.10;65.00
78751;BME280;68070;50.954;11.060;2023-05-10T08:06:39;98409.56;;;16.99;65.33
78751;BME280;68070;50.954;11.060;2023-05-10T08:09:24;98409.30;;;17.08;66.18
78751;BME280;68070;50.954;11.060;2023-05-10T08:12:08;98418.56;;;17.26;65.74
78751;BME280;68070;50.954;11.060;2023-05-10T08:14:53;98417.13;;;17.21;65.93
78751;BME280;68070;50.954;11.060;2023-05-10T08:17:37;98414.55;;;17.05;65.53
78751;BME280;68070;50.954;11.060;2023-05-10T08:20:21;98421.20;;;16.87;65.38
78751;BME280;68070;50.954;11.060;2023-05-10T08:23:06;98428.90;;;16.57;67.14
78751;BME280;68070;50.954;11.060;2023-05-10T08:25:50;98432.27;;;16.54;68.21
78751;BME280;68070;50.954;11.060;2023-05-10T08:28:35;98436.02;;;16.58;67.94
78751;BME280;68070;50.954;11.060;2023-05-10T08:31:19;98439.19;;;16.67;67.86
78751;BME280;68070;50.954;11.060;2023-05-10T08:34:03;98441.42;;;16.75;67.28
78751;BME280;68070;50.954;11.060;2023-05-10T08:36:48;98440.34;;;16.76;67.52
78751;BME280;68070;50.954;11.060;2023-05-10T08:39:35;98447.02;;;16.79;67.37
78751;BME280;68070;50.954;11.060;2023-05-10T08:42:20;98447.79;;;16.79;67.21
78751;BME280;68070;50.954;11.060;2023-05-10T08:45:06;98452.35;;;16.82;67.42
78751;BME280;68070;50.954;11.060;2023-05-10T08:47:51;98449.52;;;16.87;66.87
78751;BME280;68070;50.954;11.060;2023-05-10T08:50:36;98454.00;;;16.83;66.37
78751;BME280;68070;50.954;11.060;2023-05-10T08:53:21;98456.81;;;16.78;66.17
78751;BME280;68070;50.954;11.060;2023-05-10T08:56:07;98455.85;;;16.89;65.87
78751;BME280;68070;50.954;11.060;2023-05-10T08:58:52;98459.48;;;16.90;65.96
78751;BME280;68070;50.954;11.060;2023-05-10T09:01:36;98462.80;;;16.97;65.70
78751;BME280;68070;50.954;11.060;2023-05-10T09:04:20;98463.77;;;17.05;64.74
78751;BME280;68070;50.954;11.060;2023-05-10T09:07:06;98466.58;;;17.06;65.92
78751;BME280;68070;50.954;11.060;2023-05-10T09:09:50;98476.60;;;17.20;65.23
78751;BME280;68070;50.954;11.060;2023-05-10T09:12:35;98474.29;;;17.32;62.29
78751;BME280;68070;50.954;11.060;2023-05-10T09:15:20;98480.95;;;17.38;62.56
78751;BME280;68070;50.954;11.060;2023-05-10T09:18:04;98483.23;;;17.59;61.23
78751;BME280;68070;50.954;11.060;2023-05-10T09:20:49;98482.56;;;17.72;60.55
78751;BME280;68070;50.954;11.060;2023-05-10T09:23:33;98486.33;;;17.90;61.38
78751;BME280;68070;50.954;11.060;2023-05-10T09:26:21;98494.98;;;18.18;61.51
78751;BME280;68070;50.954;11.060;2023-05-10T09:29:06;98493.95;;;18.36;60.25
78751;BME280;68070;50.954;11.060;2023-05-10T09:31:52;98497.46;;;18.46;60.23
78751;BME280;68070;50.954;11.060;2023-05-10T09:34:38;98498.26;;;18.55;59.53
78751;BME280;68070;50.954;11.060;2023-05-10T09:37:29;98501.06;;;18.48;59.15
78751;BME280;68070;50.954;11.060;2023-05-10T09:43:05;98507.22;;;17.68;59.85
78751;BME280;68070;50.954;11.060;2023-05-10T09:45:50;98510.20;;;17.47;61.52
78751;BME280;68070;50.954;11.060;2023-05-10T09:48:39;98522.05;;;17.36;62.51
78751;BME280;68070;50.954;11.060;2023-05-10T09:51:25;98529.88;;;17.02;63.85
78751;BME280;68070;50.954;11.060;2023-05-10T09:54:12;98533.88;;;16.75;65.46
78751;BME280;68070;50.954;11.060;2023-05-10T09:56:56;98540.05;;;16.70;66.38
78751;BME280;68070;50.954;11.060;2023-05-10T09:59:42;98542.31;;;16.53;67.26
78751;BME280;68070;50.954;11.060;2023-05-10T10:02:28;98545.19;;;16.31;68.74
78751;BME280;68070;50.954;11.060;2023-05-10T10:05:13;98542.05;;;16.19;69.20
78751;BME280;68070;50.954;11.060;2023-05-10T10:07:57;98544.16;;;16.26;69.13
78751;BME280;68070;50.954;11.060;2023-05-10T10:10:42;98543.06;;;16.36;69.41
78751;BME280;68070;50.954;11.060;2023-05-10T10:13:28;98541.35;;;16.41;68.59
78751;BME280;68070;50.954;11.060;2023-05-10T10:16:13;98543.24;;;16.50;68.59
78751;BME280;68070;50.954;11.060;2023-05-10T10:18:57;98544.70;;;16.67;68.41
78751;BME280;68070;50.954;11.060;2023-05-10T10:21:42;98541.08;;;16.90;67.93
78751;BME280;68070;50.954;11.060;2023-05-10T10:24:26;98540.49;;;17.10;67.11
78751;BME280;68070;50.954;11.060;2023-05-10T10:27:23;98540.64;;;17.30;66.22
78751;BME280;68070;50.954;11.060;2023-05-10T10:33:16;98540.84;;;17.54;65.07
78751;BME280;68070;50.954;11.060;2023-05-10T10:36:02;98539.50;;;17.49;63.81
78751;BME280;68070;50.954;11.060;2023-05-10T10:50:08;98546.36;;;18.46;60.48
78751;BME280;68070;50.954;11.060;2023-05-10T10:52:54;98549.02;;;18.63;59.75
78751;BME280;68070;50.954;11.060;2023-05-10T10:55:48;98545.93;;;18.49;58.93
78751;BME280;68070;50.954;11.060;2023-05-10T10:58:33;98548.30;;;18.22;59.85
78751;BME280;68070;50.954;11.060;2023-05-10T11:01:17;98544.98;;;17.77;59.82
78751;BME280;68070;50.954;11.060;2023-05-10T11:07:53;98548.73;;;17.35;62.46
78751;BME280;68070;50.954;11.060;2023-05-10T11:10:38;98545.87;;;17.27;62.60
78751;BME280;68070;50.954;11.060;2023-05-10T11:13:33;98547.42;;;17.27;63.85
78751;BME280;68070;50.954;11.060;2023-05-10T11:16:21;98547.14;;;17.12;64.76
78751;BME280;68070;50.954;11.060;2023-05-10T11:19:07;98561.80;;;16.75;66.65
78751;BME280;68070;50.954;11.060;2023-05-10T11:24:56;98568.05;;;16.29;67.71
78751;BME280;68070;50.954;11.060;2023-05-10T11:27:41;98566.51;;;16.15;67.72
78751;BME280;68070;50.954;11.060;2023-05-10T11:30:25;98567.23;;;16.13;67.50
78751;BME280;68070;50.954;11.060;2023-05-10T11:33:11;98569.67;;;16.16;68.05
78751;BME280;68070;50.954;11.060;2023-05-10T11:35:59;98568.98;;;16.08;68.31
78751;BME280;68070;50.954;11.060;2023-05-10T11:38:43;98573.01;;;16.11;67.84
78751;BME280;68070;50.954;11.060;2023-05-10T11:41:28;98572.36;;;16.03;68.15
78751;BME280;68070;50.954;11.060;2023-05-10T11:44:12;98569.79;;;16.07;69.57
78751;BME280;68070;50.954;11.060;2023-05-10T11:47:00;98578.65;;;16.16;70.31
78751;BME280;68070;50.954;11.060;2023-05-10T11:49:45;98579.79;;;16.19;70.44
78751;BME280;68070;50.954;11.060;2023-05-10T11:52:34;98579.52;;;16.21;71.11
78751;BME280;68070;50.954;11.060;2023-05-10T11:55:19;98587.34;;;16.22;70.34
78751;BME280;68070;50.954;11.060;2023-05-10T11:58:03;98588.56;;;16.36;69.21
78751;BME280;68070;50.954;11.060;2023-05-10T12:00:47;98595.14;;;16.62;69.04
78751;BME280;68070;50.954;11.060;2023-05-10T12:03:32;98598.12;;;16.73;68.16
78751;BME280;68070;50.954;11.060;2023-05-10T12:06:17;98595.75;;;16.95;68.50
78751;BME280;68070;50.954;11.060;2023-05-10T12:09:05;98594.46;;;17.26;67.17
78751;BME280;68070;50.954;11.060;2023-05-10T12:11:49;98596.84;;;17.51;66.10
78751;BME280;68070;50.954;11.060;2023-05-10T12:14:39;98599.20;;;17.60;64.74
78751;BME280;68070;50.954;11.060;2023-05-10T12:17:27;98601.55;;;17.50;63.15
78751;BME280;68070;50.954;11.060;2023-05-10T12:22:59;98592.37;;;17.82;63.89
78751;BME280;68070;50.954;11.060;2023-05-10T12:25:47;98599.71;;;18.22;63.04
78751;BME280;68070;50.954;11.060;2023-05-10T12:28:31;98597.12;;;18.22;62.18
78751;BME280;68070;50.954;11.060;2023-05-10T12:31:16;98595.30;;;18.38;60.65
78751;BME280;68070;50.954;11.060;2023-05-10T12:34:00;98597.84;;;18.25;60.06
78751;BME280;68070;50.954;11.060;2023-05-10T12:36:45;98595.48;;;18.38;60.39
78751;BME280;68070;50.954;11.060;2023-05-10T12:39:42;98599.95;;;18.53;60.44
78751;BME280;68070;50.954;11.060;2023-05-10T12:42:26;98597.92;;;18.34;59.31
78751;BME280;68070;50.954;11.060;2023-05-10T12:45:11;98597.37;;;18.44;59.61
78751;BME280;68070;50.954;11.060;2023-05-10T12:47:55;98592.96;;;18.70;59.82
78751;BME280;68070;50.954;11.060;2023-05-10T12:50:39;98597.55;;;19.04;58.74
78751;BME280;68070;50.954;11.060;2023-05-10T12:53:24;98599.34;;;19.11;57.99
78751;BME280;68070;50.954;11.060;2023-05-10T12:56:08;98604.73;;;19.23;56.99
78751;BME280;68070;50.954;11.060;2023-05-10T12:58:53;98603.90;;;19.42;57.07
78751;BME280;68070;50.954;11.060;2023-05-10T13:01:37;98604.99;;;19.35;56.11
78751;BME280;68070;50.954;11.060;2023-05-10T13:04:21;98599.76;;;19.54;56.62
78751;BME280;68070;50.954;11.060;2023-05-10T13:07:06;98596.15;;;19.58;55.18
78751;BME280;68070;50.954;11.060;2023-05-10T13:09:50;98595.32;;;19.48;54.54
78751;BME280;68070;50.954;11.060;2023-05-10T13:12:35;98597.39;;;19.72;54.62
78751;BME280;68070;50.954;11.060;2023-05-10T13:15:19;98593.86;;;19.73;53.49
78751;BME280;68070;50.954;11.060;2023-05-10T13:18:04;98591.09;;;19.49;53.79
78751;BME280;68070;50.954;11.060;2023-05-10T13:20:48;98591.10;;;19.38;53.85
78751;BME280;68070;50.954;11.060;2023-05-10T13:23:33;98593.00;;;19.37;53.12
78751;BME280;68070;50.954;11.060;2023-05-10T13:26:18;98592.00;;;19.60;53.98
78751;BME280;68070;50.954;11.060;2023-05-10T13:29:03;98590.63;;;19.67;53.03
78751;BME280;68070;50.954;11.060;2023-05-10T13:31:47;98588.48;;;19.61;51.87
78751;BME280;68070;50.954;11.060;2023-05-10T13:34:31;98593.66;;;19.64;52.70
78751;BME280;68070;50.954;11.060;2023-05-10T13:37:16;98591.83;;;19.78;52.12
78751;BME280;68070;50.954;11.060;2023-05-10T13:40:00;98592.77;;;19.63;52.83
78751;BME280;68070;50.954;11.060;2023-05-10T13:42:45;98592.45;;;19.54;53.16
78751;BME280;68070;50.954;11.060;2023-05-10T13:45:29;98590.55;;;19.48;51.98
78751;BME280;68070;50.954;11.060;2023-05-10T13:48:13;98592.30;;;19.28;51.94
78751;BME280;68070;50.954;11.060;2023-05-10T13:50:58;98593.38;;;19.33;53.17
78751;BME280;68070;50.954;11.060;2023-05-10T13:53:42;98591.54;;;19.08;51.23
78751;BME280;68070;50.954;11.060;2023-05-10T13:56:27;98592.65;;;18.97;51.53
78751;BME280;68070;50.954;11.060;2023-05-10T13:59:11;98594.81;;;18.99;51.40
78751;BME280;68070;50.954;11.060;2023-05-10T14:01:55;98591.23;;;19.19;51.61
78751;BME280;68070;50.954;11.060;2023-05-10T14:04:40;98593.14;;;19.41;51.81
78751;BME280;68070;50.954;11.060;2023-05-10T14:07:24;98588.52;;;19.76;51.31
78751;BME280;68070;50.954;11.060;2023-05-10T14:10:09;98588.59;;;19.98;50.65
78751;BME280;68070;50.954;11.060;2023-05-10T14:12:53;98583.05;;;20.15;50.43
78751;BME280;68070;50.954;11.060;2023-05-10T14:15:38;98584.38;;;20.28;49.84
78751;BME280;68070;50.954;11.060;2023-05-10T14:18:22;98577.50;;;20.29;49.70
78751;BME280;68070;50.954;11.060;2023-05-10T14:21:06;98583.93;;;20.15;48.88
78751;BME280;68070;50.954;11.060;2023-05-10T14:23:51;98581.77;;;20.15;48.91
78751;BME280;68070;50.954;11.060;2023-05-10T14:26:35;98581.13;;;20.17;48.26
78751;BME280;68070;50.954;11.060;2023-05-10T14:29:20;98582.55;;;20.14;48.41
78751;BME280;68070;50.954;11.060;2023-05-10T14:32:05;98580.48;;;20.21;48.94
78751;BME280;68070;50.954;11.060;2023-05-10T14:34:49;98578.33;;;20.00;49.80
78751;BME280;68070;50.954;11.060;2023-05-10T14:37:33;98582.02;;;19.75;48.99
78751;BME280;68070;50.954;11.060;2023-05-10T14:40:18;98581.17;;;19.63;48.93
78751;BME280;68070;50.954;11.060;2023-05-10T14:43:02;98579.59;;;19.63;49.24
78751;BME280;68070;50.954;11.060;2023-05-10T14:45:47;98580.37;;;19.68;49.00
78751;BME280;68070;50.954;11.060;2023-05-10T14:48:31;98574.63;;;19.84;49.43
78751;BME280;68070;50.954;11.060;2023-05-10T14:51:16;98577.88;;;20.09;47.98
78751;BME280;68070;50.954;11.060;2023-05-10T14:54:00;98576.02;;;20.16;47.37
78751;BME280;68070;50.954;11.060;2023-05-10T14:56:44;98577.21;;;20.23;47.58
78751;BME280;68070;50.954;11.060;2023-05-10T14:59:29;98574.11;;;20.31;48.06
78751;BME280;68070;50.954;11.060;2023-05-10T15:02:13;98572.52;;;20.49;47.67
78751;BME280;68070;50.954;11.060;2023-05-10T15:04:58;98578.91;;;20.79;47.33
78751;BME280;68070;50.954;11.060;2023-05-10T15:07:42;98575.98;;;21.06;46.56